createdAt,value
2018-09-19T00:01:45.283Z,101186.80
2018-09-19T00:04:13.438Z,101194.34
2018-09-19T00:06:41.659Z,101191.20
2018-09-19T00:09:11.328Z,101192.90
2018-09-19T00:11:39.730Z,101192.39
2018-09-19T00:14:08.100Z,101190.55
2018-09-19T00:16:36.267Z,101197.58
2018-09-19T00:19:04.494Z,101191.23
2018-09-19T00:21:32.666Z,101195.09
2018-09-19T00:24:00.926Z,101191.91
2018-09-19T00:26:29.108Z,101190.91
2018-09-19T00:28:57.277Z,101196.61
2018-09-19T00:31:25.508Z,101200.97
2018-09-19T00:33:54.088Z,101207.67
2018-09-19T00:36:22.383Z,101199.01
2018-09-19T00:38:50.578Z,101199.69
2018-09-19T00:41:18.771Z,101199.05
2018-09-19T00:43:47.186Z,101206.77
2018-09-19T00:46:15.431Z,101209.34
2018-09-19T00:48:43.684Z,101204.84
2018-09-19T00:51:11.876Z,101208.23
2018-09-19T00:53:40.063Z,101216.63
2018-09-19T00:56:08.239Z,101216.98
2018-09-19T00:58:36.440Z,101217.32
2018-09-19T01:01:04.590Z,101226.53
2018-09-19T01:03:32.775Z,101226.70
2018-09-19T01:06:00.967Z,101226.37
2018-09-19T01:08:29.147Z,101227.42
2018-09-19T01:10:57.326Z,101224.75
2018-09-19T01:13:25.555Z,101224.91
2018-09-19T01:15:53.739Z,101225.41
2018-09-19T01:18:21.923Z,101228.27
2018-09-19T01:20:50.099Z,101230.14
2018-09-19T01:23:18.286Z,101224.78
2018-09-19T01:25:46.461Z,101229.98
2018-09-19T01:28:14.646Z,101228.13
2018-09-19T01:30:42.819Z,101236.34
2018-09-19T01:33:11.003Z,101238.05
2018-09-19T01:35:39.212Z,101244.56
2018-09-19T01:38:07.428Z,101249.42
2018-09-19T01:40:35.588Z,101241.22
2018-09-19T01:43:03.759Z,101239.20
2018-09-19T01:45:31.932Z,101241.88
2018-09-19T01:48:00.106Z,101241.72
2018-09-19T01:50:28.304Z,101237.56
2018-09-19T01:52:56.547Z,101238.20
2018-09-19T01:55:24.724Z,101241.88
2018-09-19T01:57:52.933Z,101247.91
2018-09-19T02:00:21.141Z,101253.43
2018-09-19T02:02:49.330Z,101253.94
2018-09-19T02:05:17.523Z,101252.59
2018-09-19T02:07:45.745Z,101244.59
2018-09-19T02:10:13.948Z,101256.97
2018-09-19T02:12:42.114Z,101249.94
2018-09-19T02:15:10.332Z,101256.97
2018-09-19T02:17:38.531Z,101251.61
2018-09-19T02:20:06.810Z,101254.27
2018-09-19T02:22:34.967Z,101249.91
2018-09-19T02:25:03.169Z,101250.09
2018-09-19T02:27:31.312Z,101244.73
2018-09-19T02:29:59.465Z,101238.55
2018-09-19T02:32:27.643Z,101240.52
2018-09-19T02:34:55.872Z,101236.34
2018-09-19T02:37:24.079Z,101243.87
2018-09-19T02:39:52.299Z,101239.02
2018-09-19T02:42:20.474Z,101240.86
2018-09-19T02:44:48.647Z,101234.16
2018-09-19T02:47:16.857Z,101237.17
2018-09-19T02:49:45.039Z,101233.16
2018-09-19T02:52:13.236Z,101245.04
2018-09-19T02:54:41.416Z,101249.25
2018-09-19T02:57:09.610Z,101241.89
2018-09-19T02:59:37.783Z,101254.27
2018-09-19T03:02:05.949Z,101258.29
2018-09-19T03:04:34.123Z,101262.30
2018-09-19T03:07:02.326Z,101264.98
2018-09-19T03:09:30.479Z,101263.63
2018-09-19T03:11:58.672Z,101271.02
2018-09-19T03:14:26.841Z,101268.17
2018-09-19T03:16:55.039Z,101269.02
2018-09-19T03:19:23.245Z,101268.35
2018-09-19T03:21:51.457Z,101264.17
2018-09-19T03:24:19.616Z,101263.33
2018-09-19T03:26:47.867Z,101254.92
2018-09-19T03:29:16.030Z,101260.96
2018-09-19T03:31:44.221Z,101263.30
2018-09-19T03:34:12.460Z,101264.11
2018-09-19T03:36:40.623Z,101262.94
2018-09-19T03:39:10.185Z,101259.77
2018-09-19T03:41:38.865Z,101254.26
2018-09-19T03:44:07.288Z,101255.97
2018-09-19T03:46:36.045Z,101254.30
2018-09-19T03:49:04.305Z,101245.58
2018-09-19T03:51:32.770Z,101243.91
2018-09-19T03:54:00.952Z,101248.27
2018-09-19T03:56:29.156Z,101243.58
2018-09-19T03:58:57.421Z,101254.63
2018-09-19T04:01:25.614Z,101249.77
2018-09-19T04:03:53.791Z,101260.30
2018-09-19T04:06:21.983Z,101255.28
2018-09-19T04:08:50.190Z,101262.34
2018-09-19T04:11:18.416Z,101269.02
2018-09-19T04:13:46.615Z,101272.03
2018-09-19T04:16:14.814Z,101283.36
2018-09-19T04:18:42.997Z,101283.70
2018-09-19T04:21:11.190Z,101283.06
2018-09-19T04:23:39.359Z,101285.41
2018-09-19T04:26:07.541Z,101271.37
2018-09-19T04:28:35.714Z,101269.33
2018-09-19T04:31:03.895Z,101266.16
2018-09-19T04:33:32.090Z,101269.36
2018-09-19T04:36:00.271Z,101282.20
2018-09-19T04:38:28.462Z,101276.50
2018-09-19T04:40:56.643Z,101282.02
2018-09-19T04:43:25.062Z,101278.33
2018-09-19T04:45:53.227Z,101278.33
2018-09-19T04:48:21.477Z,101278.50
2018-09-19T04:50:49.687Z,101279.19
2018-09-19T04:53:17.905Z,101274.50
2018-09-19T04:55:46.152Z,101274.83
2018-09-19T04:58:14.324Z,101272.48
2018-09-19T05:00:42.541Z,101276.31
2018-09-19T05:03:10.757Z,101272.97
2018-09-19T05:05:39.100Z,101276.64
2018-09-19T05:08:07.220Z,101273.33
2018-09-19T05:10:35.398Z,101280.83
2018-09-19T05:13:03.611Z,101283.84
2018-09-19T05:15:31.800Z,101286.02
2018-09-19T05:17:59.972Z,101282.69
2018-09-19T05:20:28.146Z,101284.52
2018-09-19T05:22:56.343Z,101284.02
2018-09-19T05:25:25.002Z,101288.34
2018-09-19T05:27:53.195Z,101290.52
2018-09-19T05:30:21.373Z,101290.71
2018-09-19T05:32:49.572Z,101292.05
2018-09-19T05:35:17.741Z,101293.39
2018-09-19T05:37:46.014Z,101286.70
2018-09-19T05:40:14.191Z,101288.88
2018-09-19T05:42:42.365Z,101289.38
2018-09-19T05:45:10.545Z,101289.38
2018-09-19T05:47:38.729Z,101293.05
2018-09-19T05:50:06.948Z,101288.03
2018-09-19T05:52:35.146Z,101289.38
2018-09-19T05:55:03.343Z,101286.20
2018-09-19T05:57:31.502Z,101285.00
2018-09-19T05:59:59.711Z,101277.66
2018-09-19T06:02:27.894Z,101281.33
2018-09-19T06:04:56.141Z,101278.66
2018-09-19T06:07:24.247Z,101280.83
2018-09-19T06:09:52.418Z,101276.31
2018-09-19T06:12:20.573Z,101277.16
2018-09-19T06:14:48.764Z,101275.16
2018-09-19T06:17:16.981Z,101266.80
2018-09-19T06:19:45.150Z,101265.30
2018-09-19T06:22:13.307Z,101261.29
2018-09-19T06:24:41.477Z,101264.80
2018-09-19T06:27:09.680Z,101259.78
2018-09-19T06:29:37.936Z,101256.95
2018-09-19T06:32:06.414Z,101263.44
2018-09-19T06:34:34.566Z,101261.94
2018-09-19T06:37:02.805Z,101265.29
2018-09-19T06:39:30.939Z,101273.49
2018-09-19T06:41:59.149Z,101276.84
2018-09-19T06:44:27.314Z,101277.72
2018-09-19T06:46:55.543Z,101274.02
2018-09-19T06:49:23.654Z,101270.84
2018-09-19T06:51:51.896Z,101262.83
2018-09-19T06:54:20.029Z,101269.69
2018-09-19T06:56:48.185Z,101270.33
2018-09-19T06:59:16.343Z,101261.97
2018-09-19T07:01:44.503Z,101255.61
2018-09-19T07:04:12.987Z,101250.92
2018-09-19T07:06:41.158Z,101263.98
2018-09-19T07:09:10.146Z,101269.98
2018-09-19T07:11:38.437Z,101271.65
2018-09-19T07:14:07.021Z,101271.32
2018-09-19T07:16:35.204Z,101264.29
2018-09-19T07:19:03.508Z,101269.64
2018-09-19T07:21:31.530Z,101270.45
2018-09-19T07:23:59.723Z,101266.77
2018-09-19T07:26:27.932Z,101272.97
2018-09-19T07:28:56.140Z,101272.96
2018-09-19T07:31:24.302Z,101276.78
2018-09-19T07:33:52.475Z,101275.44
2018-09-19T07:36:20.678Z,101273.25
2018-09-19T07:38:48.868Z,101281.09
2018-09-19T07:41:17.034Z,101281.63
2018-09-19T07:43:45.201Z,101281.61
2018-09-19T07:46:13.378Z,101281.27
2018-09-19T07:48:41.550Z,101285.42
2018-09-19T07:51:09.719Z,101291.28
2018-09-19T07:53:37.931Z,101293.63
2018-09-19T07:56:06.112Z,101296.98
2018-09-19T07:58:34.304Z,101293.67
2018-09-19T08:01:02.508Z,101292.00
2018-09-19T08:03:30.680Z,101294.85
2018-09-19T08:05:58.850Z,101285.30
2018-09-19T08:08:27.027Z,101287.48
2018-09-19T08:10:55.198Z,101282.62
2018-09-19T08:13:23.380Z,101287.47
2018-09-19T08:15:51.603Z,101286.42
2018-09-19T08:18:19.829Z,101274.85
2018-09-19T08:20:48.023Z,101275.64
2018-09-19T08:23:16.184Z,101280.31
2018-09-19T08:25:44.383Z,101285.13
2018-09-19T08:28:12.563Z,101293.49
2018-09-19T08:30:40.761Z,101286.78
2018-09-19T08:33:08.911Z,101292.47
2018-09-19T08:35:37.142Z,101297.50
2018-09-19T08:38:05.325Z,101296.32
2018-09-19T08:40:33.540Z,101303.36
2018-09-19T08:43:01.782Z,101305.36
2018-09-19T08:45:29.959Z,101306.50
2018-09-19T08:47:58.166Z,101307.83
2018-09-19T08:50:26.331Z,101308.15
2018-09-19T08:52:54.566Z,101303.45
2018-09-19T08:55:22.757Z,101305.07
2018-09-19T08:57:50.970Z,101296.83
2018-09-19T09:00:19.159Z,101284.27
2018-09-19T09:02:47.348Z,101277.17
2018-09-19T09:05:15.543Z,101278.83
2018-09-19T09:07:43.722Z,101275.61
2018-09-19T09:10:11.932Z,101277.44
2018-09-19T09:12:40.213Z,101278.73
2018-09-19T09:15:08.335Z,101278.70
2018-09-19T09:17:36.535Z,101272.66
2018-09-19T09:20:04.799Z,101275.97
2018-09-19T09:22:32.950Z,101265.50
2018-09-19T09:25:01.131Z,101259.27
2018-09-19T09:27:29.357Z,101258.05
2018-09-19T09:29:57.556Z,101256.28
2018-09-19T09:32:25.718Z,101252.19
2018-09-19T09:34:53.892Z,101247.41
2018-09-19T09:37:22.083Z,101248.69
2018-09-19T09:39:50.340Z,101249.67
2018-09-19T09:42:18.531Z,101248.91
2018-09-19T09:44:46.718Z,101251.64
2018-09-19T09:47:14.912Z,101243.09
2018-09-19T09:49:43.095Z,101241.62
2018-09-19T09:52:11.323Z,101243.36
2018-09-19T09:54:39.532Z,101234.48
2018-09-19T09:57:07.685Z,101240.36
2018-09-19T09:59:35.854Z,101243.33
2018-09-19T10:02:04.082Z,101239.83
2018-09-19T10:04:32.290Z,101235.54
2018-09-19T10:07:00.472Z,101225.20
2018-09-19T10:09:28.660Z,101231.02
2018-09-19T10:11:56.839Z,101232.27
2018-09-19T10:14:25.067Z,101220.45
2018-09-19T10:16:53.258Z,101215.63
2018-09-19T10:19:21.460Z,101228.40
2018-09-19T10:21:49.621Z,101207.48
2018-09-19T10:24:17.817Z,101214.11
2018-09-19T10:26:46.022Z,101211.31
2018-09-19T10:29:14.246Z,101203.63
2018-09-19T10:31:42.453Z,101203.30
2018-09-19T10:34:10.634Z,101207.31
2018-09-19T10:36:38.829Z,101212.75
2018-09-19T10:39:07.275Z,101209.42
2018-09-19T10:41:35.467Z,101213.16
2018-09-19T10:44:03.757Z,101206.00
2018-09-19T10:46:31.859Z,101209.61
2018-09-19T10:49:00.073Z,101202.75
2018-09-19T10:51:28.286Z,101202.64
2018-09-19T10:53:56.463Z,101200.46
2018-09-19T10:56:24.620Z,101200.42
2018-09-19T10:58:52.798Z,101191.53
2018-09-19T11:01:21.004Z,101193.36
2018-09-19T11:03:49.182Z,101187.48
2018-09-19T11:06:17.360Z,101181.98
2018-09-19T11:08:45.547Z,101186.15
2018-09-19T11:11:13.759Z,101185.87
2018-09-19T11:13:41.974Z,101190.67
2018-09-19T11:16:10.184Z,101186.72
2018-09-19T11:18:38.591Z,101180.88
2018-09-19T11:21:06.759Z,101191.45
2018-09-19T11:23:34.926Z,101184.16
2018-09-19T11:26:03.123Z,101188.07
2018-09-19T11:28:31.324Z,101171.50
2018-09-19T11:30:59.494Z,101173.92
2018-09-19T11:33:27.696Z,101174.16
2018-09-19T11:35:55.810Z,101176.34
2018-09-19T11:38:23.996Z,101176.93
2018-09-19T11:40:52.185Z,101176.80
2018-09-19T11:43:20.399Z,101181.90
2018-09-19T11:45:48.535Z,101178.13
2018-09-19T11:48:16.698Z,101182.88
2018-09-19T11:50:44.890Z,101178.00
2018-09-19T11:53:18.413Z,101179.79
2018-09-19T11:55:50.288Z,101182.59
2018-09-19T11:58:18.610Z,101174.54
2018-09-19T12:00:46.771Z,101174.06
2018-09-19T12:03:14.994Z,101182.84
2018-09-19T12:05:43.179Z,101179.36
2018-09-19T12:08:11.535Z,101181.09
2018-09-19T12:10:39.743Z,101178.20
2018-09-19T12:13:07.890Z,101173.59
2018-09-19T12:15:36.480Z,101172.09
2018-09-19T12:18:04.718Z,101173.03
2018-09-19T12:20:33.236Z,101171.85
2018-09-19T12:23:01.407Z,101162.06
2018-09-19T12:25:29.571Z,101165.31
2018-09-19T12:27:57.819Z,101172.93
2018-09-19T12:30:26.073Z,101168.86
2018-09-19T12:32:54.276Z,101167.08
2018-09-19T12:35:22.457Z,101163.65
2018-09-19T12:37:50.615Z,101163.28
2018-09-19T12:40:18.889Z,101168.77
2018-09-19T12:42:47.019Z,101165.82
2018-09-19T12:45:15.219Z,101155.50
2018-09-19T12:47:43.395Z,101157.50
2018-09-19T12:50:11.562Z,101159.45
2018-09-19T12:52:39.748Z,101158.52
2018-09-19T12:55:07.983Z,101156.13
2018-09-19T12:57:36.443Z,101159.93
2018-09-19T13:00:04.760Z,101151.02
2018-09-19T13:02:32.893Z,101150.12
2018-09-19T13:05:01.080Z,101156.22
2018-09-19T13:07:29.283Z,101155.23
2018-09-19T13:09:57.462Z,101145.61
2018-09-19T13:12:25.647Z,101152.94
2018-09-19T13:14:53.802Z,101151.13
2018-09-19T13:17:21.974Z,101149.64
2018-09-19T13:19:50.171Z,101146.84
2018-09-19T13:22:18.375Z,101154.48
2018-09-19T13:24:46.555Z,101140.56
2018-09-19T13:27:14.749Z,101147.67
2018-09-19T13:29:42.927Z,101134.75
2018-09-19T13:32:11.111Z,101129.39
2018-09-19T13:34:39.310Z,101126.38
2018-09-19T13:37:07.462Z,101123.29
2018-09-19T13:39:35.650Z,101120.67
2018-09-19T13:42:03.834Z,101111.69
2018-09-19T13:44:32.161Z,101109.20
2018-09-19T13:47:00.306Z,101114.90
2018-09-19T13:49:34.069Z,101113.83
2018-09-19T13:52:02.237Z,101110.71
2018-09-19T13:54:30.456Z,101109.89
2018-09-19T13:56:58.656Z,101111.97
2018-09-19T13:59:26.816Z,101110.12
2018-09-19T14:01:54.995Z,101113.56
2018-09-19T14:04:23.227Z,101108.77
2018-09-19T14:06:51.367Z,101113.61
2018-09-19T14:09:19.531Z,101100.34
2018-09-19T14:11:47.836Z,101098.59
2018-09-19T14:14:16.524Z,101089.14
2018-09-19T14:16:44.687Z,101089.02
2018-09-19T14:19:14.055Z,101089.58
2018-09-19T14:21:42.237Z,101091.13
2018-09-19T14:24:10.439Z,101096.72
2018-09-19T14:26:38.595Z,101101.44
2018-09-19T14:29:06.779Z,101092.67
2018-09-19T14:31:34.986Z,101098.27
2018-09-19T14:34:03.193Z,101090.27
2018-09-19T14:36:31.384Z,101094.23
2018-09-19T14:38:59.541Z,101081.48
2018-09-19T14:41:27.735Z,101082.70
2018-09-19T14:43:55.902Z,101084.81
2018-09-19T14:46:24.082Z,101080.44
2018-09-19T14:48:52.285Z,101078.63
2018-09-19T14:51:20.467Z,101076.22
2018-09-19T14:53:48.687Z,101069.58
2018-09-19T14:56:16.904Z,101081.19
2018-09-19T14:58:45.106Z,101081.13
2018-09-19T15:01:13.365Z,101069.32
2018-09-19T15:03:41.565Z,101072.56
2018-09-19T15:06:09.728Z,101081.42
2018-09-19T15:08:37.903Z,101074.27
2018-09-19T15:11:06.214Z,101078.79
2018-09-19T15:13:34.380Z,101087.19
2018-09-19T15:16:02.559Z,101082.59
2018-09-19T15:18:30.750Z,101073.02
2018-09-19T15:20:58.938Z,101077.02
2018-09-19T15:23:27.132Z,101075.88
2018-09-19T15:25:55.303Z,101068.27
2018-09-19T15:28:23.492Z,101068.95
2018-09-19T15:30:51.639Z,101061.81
2018-09-19T15:33:19.841Z,101067.77
2018-09-19T15:35:48.025Z,101065.59
2018-09-19T15:38:16.223Z,101062.05
2018-09-19T15:40:44.380Z,101070.10
2018-09-19T15:43:12.552Z,101073.42
2018-09-19T15:45:40.744Z,101067.70
2018-09-19T15:48:08.926Z,101081.70
2018-09-19T15:50:37.092Z,101079.75
2018-09-19T15:53:05.251Z,101080.50
2018-09-19T15:55:33.510Z,101088.73
2018-09-19T15:58:01.796Z,101083.00
2018-09-19T16:00:30.021Z,101080.44
2018-09-19T16:02:58.198Z,101080.21
2018-09-19T16:05:26.359Z,101079.30
2018-09-19T16:07:54.523Z,101072.83
2018-09-19T16:10:22.723Z,101084.34
2018-09-19T16:12:50.883Z,101081.86
2018-09-19T16:15:19.063Z,101089.25
2018-09-19T16:17:47.243Z,101086.98
2018-09-19T16:20:15.464Z,101094.17
2018-09-19T16:22:43.650Z,101082.90
2018-09-19T16:25:11.831Z,101087.98
2018-09-19T16:27:39.996Z,101087.23
2018-09-19T16:30:09.190Z,101090.09
2018-09-19T16:32:37.505Z,101085.85
2018-09-19T16:35:05.751Z,101094.28
2018-09-19T16:37:33.995Z,101096.55
2018-09-19T16:40:02.620Z,101101.53
2018-09-19T16:42:31.608Z,101104.81
2018-09-19T16:45:00.187Z,101108.96
2018-09-19T16:47:28.777Z,101116.26
2018-09-19T16:49:57.324Z,101110.23
2018-09-19T16:52:25.898Z,101116.70
2018-09-19T16:54:54.309Z,101114.03
2018-09-19T16:57:22.959Z,101118.16
2018-09-19T16:59:51.518Z,101124.84
2018-09-19T17:02:19.719Z,101126.42
2018-09-19T17:04:48.086Z,101126.98
2018-09-19T17:07:16.299Z,101133.38
2018-09-19T17:09:44.491Z,101129.59
2018-09-19T17:12:12.680Z,101132.48
2018-09-19T17:14:40.871Z,101133.87
2018-09-19T17:17:09.083Z,101136.53
2018-09-19T17:19:37.271Z,101145.00
2018-09-19T17:22:05.480Z,101152.72
2018-09-19T17:24:33.672Z,101146.81
2018-09-19T17:27:01.875Z,101148.20
2018-09-19T17:29:30.076Z,101153.83
2018-09-19T17:31:58.308Z,101153.88
2018-09-19T17:34:26.493Z,101154.30
2018-09-19T17:36:54.727Z,101165.35
2018-09-19T17:39:22.916Z,101169.33
2018-09-19T17:41:51.099Z,101168.78
2018-09-19T17:44:19.276Z,101168.77
2018-09-19T17:46:47.464Z,101173.69
2018-09-19T17:49:15.659Z,101183.96
2018-09-19T17:51:43.867Z,101176.19
2018-09-19T17:54:12.153Z,101180.23
2018-09-19T17:56:40.362Z,101180.02
2018-09-19T17:59:08.547Z,101179.30
2018-09-19T18:01:36.902Z,101179.51
2018-09-19T18:04:05.130Z,101188.85
2018-09-19T18:06:33.370Z,101187.59
2018-09-19T18:09:01.582Z,101193.40
2018-09-19T18:11:29.771Z,101190.07
2018-09-19T18:13:57.946Z,101201.31
2018-09-19T18:16:26.175Z,101201.91
2018-09-19T18:18:54.354Z,101200.50
2018-09-19T18:21:22.519Z,101206.86
2018-09-19T18:23:51.135Z,101221.27
2018-09-19T18:26:19.332Z,101215.12
2018-09-19T18:28:47.640Z,101223.02
2018-09-19T18:31:15.840Z,101220.41
2018-09-19T18:33:44.043Z,101227.88
2018-09-19T18:36:12.220Z,101221.41
2018-09-19T18:38:40.484Z,101231.77
2018-09-19T18:41:08.736Z,101232.07
2018-09-19T18:43:36.927Z,101240.44
2018-09-19T18:46:05.200Z,101244.56
2018-09-19T18:48:33.391Z,101249.23
2018-09-19T18:51:01.587Z,101253.87
2018-09-19T18:53:31.016Z,101247.72
2018-09-19T18:55:59.195Z,101257.78
2018-09-19T18:58:28.846Z,101267.13
2018-09-19T19:00:57.027Z,101268.97
2018-09-19T19:03:25.221Z,101270.59
2018-09-19T19:05:53.428Z,101274.48
2018-09-19T19:08:21.632Z,101281.41
2018-09-19T19:10:49.863Z,101284.36
2018-09-19T19:13:18.166Z,101287.13
2018-09-19T19:15:46.503Z,101288.44
2018-09-19T19:18:14.743Z,101294.91
2018-09-19T19:20:43.639Z,101297.86
2018-09-19T19:23:11.859Z,101295.13
2018-09-19T19:25:40.135Z,101300.70
2018-09-19T19:28:08.368Z,101306.47
2018-09-19T19:30:36.869Z,101294.47
2018-09-19T19:33:05.047Z,101306.85
2018-09-19T19:35:33.570Z,101306.20
2018-09-19T19:38:01.958Z,101308.95
2018-09-19T19:40:30.097Z,101309.72
2018-09-19T19:42:58.279Z,101318.36
2018-09-19T19:45:26.486Z,101321.33
2018-09-19T19:47:54.934Z,101320.41
2018-09-19T19:50:23.144Z,101320.78
2018-09-19T19:52:51.799Z,101314.70
2018-09-19T19:55:19.998Z,101320.59
2018-09-19T19:57:48.539Z,101319.80
2018-09-19T20:02:54.649Z,101324.85
2018-09-19T20:05:23.137Z,101329.13
2018-09-19T20:07:51.380Z,101332.77
2018-09-19T20:10:19.608Z,101331.51
2018-09-19T20:12:47.925Z,101332.57
2018-09-19T20:15:17.250Z,101335.99
2018-09-19T20:17:45.625Z,101345.66
2018-09-19T20:20:14.278Z,101342.69
2018-09-19T20:22:42.710Z,101306.52
2018-09-19T20:25:11.064Z,101341.66
2018-09-19T20:27:40.206Z,101346.59
2018-09-19T20:30:09.146Z,101345.83
2018-09-19T20:32:37.474Z,101352.91
2018-09-19T20:35:05.709Z,101346.22
2018-09-19T20:37:34.030Z,101349.42
2018-09-19T20:40:02.310Z,101356.50
2018-09-19T20:42:30.862Z,101353.55
2018-09-19T20:44:59.409Z,101353.25
2018-09-19T20:47:27.967Z,101361.81
2018-09-19T20:49:57.057Z,101357.45
2018-09-19T20:52:25.601Z,101361.52
2018-09-19T20:54:54.119Z,101366.23
2018-09-19T20:57:22.393Z,101368.92
2018-09-19T20:59:51.420Z,101368.73
2018-09-19T21:02:19.686Z,101373.61
2018-09-19T21:04:47.949Z,101375.61
2018-09-19T21:07:16.158Z,101382.33
2018-09-19T21:09:44.375Z,101383.34
2018-09-19T21:12:12.643Z,101383.02
2018-09-19T21:14:40.884Z,101389.41
2018-09-19T21:17:09.216Z,101393.10
2018-09-19T21:19:37.486Z,101386.23
2018-09-19T21:22:05.866Z,101392.80
2018-09-19T21:24:34.057Z,101387.93
2018-09-19T21:27:02.426Z,101383.06
2018-09-19T21:29:30.661Z,101385.09
2018-09-19T21:31:58.938Z,101387.78
2018-09-19T21:34:27.360Z,101385.95
2018-09-19T21:36:55.486Z,101387.86
2018-09-19T21:39:23.749Z,101392.74
2018-09-19T21:41:52.053Z,101396.11
2018-09-19T21:44:20.526Z,101393.80
2018-09-19T21:46:48.892Z,101394.86
2018-09-19T21:49:17.173Z,101399.92
2018-09-19T21:51:45.540Z,101404.48
2018-09-19T21:54:13.812Z,101399.28
2018-09-19T21:56:42.141Z,101398.31
2018-09-19T21:59:10.452Z,101397.83
2018-09-19T22:01:40.755Z,101395.66
2018-09-19T22:04:09.096Z,101398.23
2018-09-19T22:06:37.657Z,101400.77
2018-09-19T22:09:09.565Z,101395.91
2018-09-19T22:11:38.063Z,101394.08
2018-09-19T22:14:06.575Z,101394.58
2018-09-19T22:16:34.874Z,101393.92
2018-09-19T22:19:03.257Z,101397.31
2018-09-19T22:21:31.594Z,101397.81
2018-09-19T22:23:59.870Z,101393.27
2018-09-19T22:26:28.120Z,101396.63
2018-09-19T22:28:56.409Z,101391.27
2018-09-19T22:31:24.704Z,101389.97
2018-09-19T22:33:52.973Z,101391.66
2018-09-19T22:36:21.231Z,101390.48
2018-09-19T22:38:49.529Z,101389.48
2018-09-19T22:41:18.301Z,101380.94
2018-09-19T22:43:46.548Z,101383.97
2018-09-19T22:46:14.930Z,101384.84
2018-09-19T22:48:43.211Z,101383.00
2018-09-19T22:51:11.494Z,101387.37
2018-09-19T22:53:39.789Z,101374.97
2018-09-19T22:56:08.117Z,101377.69
2018-09-19T22:58:36.712Z,101372.49
2018-09-19T23:01:05.066Z,101372.33
2018-09-19T23:03:33.339Z,101376.02
2018-09-19T23:06:01.628Z,101379.87
2018-09-19T23:08:29.934Z,101381.38
2018-09-19T23:10:58.232Z,101376.70
2018-09-19T23:13:26.578Z,101376.39
2018-09-19T23:15:54.857Z,101372.03
2018-09-19T23:18:23.191Z,101370.03
2018-09-19T23:20:51.449Z,101365.00
2018-09-19T23:23:19.772Z,101372.70
2018-09-19T23:25:48.064Z,101364.83
2018-09-19T23:28:16.309Z,101367.34
2018-09-19T23:30:44.586Z,101361.31
2018-09-19T23:33:12.922Z,101360.98
2018-09-19T23:35:41.197Z,101358.30
2018-09-19T23:38:09.501Z,101355.32
2018-09-19T23:40:37.782Z,101364.00
2018-09-19T23:43:06.097Z,101356.13
2018-09-19T23:45:34.369Z,101347.28
2018-09-19T23:48:02.694Z,101348.25
2018-09-19T23:50:30.954Z,101345.73
2018-09-19T23:52:59.284Z,101340.88
2018-09-19T23:55:27.613Z,101340.53
2018-09-19T23:57:55.977Z,101335.34
